sensor_id;sensor_type;location;lat;lon;timestamp;pressure;altitude;pressure_sealevel;temperature;humidity
15678;BME280;7939;50.814;6.368;2023-03-31T00:02:14;98861.38;;;15.44;60.68
15678;BME280;7939;50.814;6.368;2023-03-31T00:04:41;98850.22;;;15.43;60.64
15678;BME280;7939;50.814;6.368;2023-03-31T00:07:11;98861.38;;;15.44;60.54
15678;BME280;7939;50.814;6.368;2023-03-31T00:09:38;98855.31;;;15.45;60.64
15678;BME280;7939;50.814;6.368;2023-03-31T00:12:06;98850.22;;;15.43;60.80
15678;BME280;7939;50.814;6.368;2023-03-31T00:14:33;98847.66;;;15.43;60.82
15678;BME280;7939;50.814;6.368;2023-03-31T00:17:01;98840.84;;;15.42;60.62
15678;BME280;7939;50.814;6.368;2023-03-31T00:19:28;98833.16;;;15.41;60.70
15678;BME280;7939;50.814;6.368;2023-03-31T00:21:57;98825.44;;;15.41;60.69
15678;BME280;7939;50.814;6.368;2023-03-31T00:24:26;98818.56;;;15.41;60.79
15678;BME280;7939;50.814;6.368;2023-03-31T00:26:56;98819.47;;;15.40;60.61
15678;BME280;7939;50.814;6.368;2023-03-31T00:29:23;98816.00;;;15.39;60.54
15678;BME280;7939;50.814;6.368;2023-03-31T00:31:49;98810.03;;;15.39;60.76
15678;BME280;7939;50.814;6.368;2023-03-31T00:34:17;98810.94;;;15.38;61.16
15678;BME280;7939;50.814;6.368;2023-03-31T00:36:44;98805.00;;;15.36;61.11
15678;BME280;7939;50.814;6.368;2023-03-31T00:39:13;98797.28;;;15.36;60.82
15678;BME280;7939;50.814;6.368;2023-03-31T00:41:40;98793.88;;;15.35;60.88
15678;BME280;7939;50.814;6.368;2023-03-31T00:44:11;98781.00;;;15.35;60.74
15678;BME280;7939;50.814;6.368;2023-03-31T00:46:42;98783.56;;;15.35;61.05
15678;BME280;7939;50.814;6.368;2023-03-31T00:49:14;98774.19;;;15.34;60.62
15678;BME280;7939;50.814;6.368;2023-03-31T00:51:44;98770.78;;;15.32;60.90
15678;BME280;7939;50.814;6.368;2023-03-31T00:54:11;98773.34;;;15.34;60.99
15678;BME280;7939;50.814;6.368;2023-03-31T00:56:40;98770.78;;;15.32;60.86
15678;BME280;7939;50.814;6.368;2023-03-31T00:59:10;98765.72;;;15.31;61.23
15678;BME280;7939;50.814;6.368;2023-03-31T01:01:39;98768.28;;;15.31;61.21
15678;BME280;7939;50.814;6.368;2023-03-31T01:04:08;98754.56;;;15.30;60.97
15678;BME280;7939;50.814;6.368;2023-03-31T01:06:38;98753.81;;;15.27;61.31
15678;BME280;7939;50.814;6.368;2023-03-31T01:09:12;98745.41;;;15.23;61.57
15678;BME280;7939;50.814;6.368;2023-03-31T01:11:42;98740.25;;;15.23;61.25
15678;BME280;7939;50.814;6.368;2023-03-31T01:14:10;98743.66;;;15.24;61.34
15678;BME280;7939;50.814;6.368;2023-03-31T01:16:37;98744.50;;;15.24;61.45
15678;BME280;7939;50.814;6.368;2023-03-31T01:19:06;98741.91;;;15.24;61.32
15678;BME280;7939;50.814;6.368;2023-03-31T01:22:06;98736.78;;;15.24;61.61
15678;BME280;7939;50.814;6.368;2023-03-31T01:27:57;98717.84;;;15.25;61.27
15678;BME280;7939;50.814;6.368;2023-03-31T01:33:46;98717.91;;;15.24;61.25
15678;BME280;7939;50.814;6.368;2023-03-31T01:42:16;98705.13;;;15.22;61.50
15678;BME280;7939;50.814;6.368;2023-03-31T01:44:52;98701.66;;;15.23;61.48
15678;BME280;7939;50.814;6.368;2023-03-31T01:47:28;98699.06;;;15.23;61.58
15678;BME280;7939;50.814;6.368;2023-03-31T01:50:01;98687.09;;;15.22;61.66
15678;BME280;7939;50.814;6.368;2023-03-31T01:52:37;98681.94;;;15.22;61.32
15678;BME280;7939;50.814;6.368;2023-03-31T01:55:09;98670.81;;;15.22;61.55
15678;BME280;7939;50.814;6.368;2023-03-31T01:57:40;98673.41;;;15.22;61.48
15678;BME280;7939;50.814;6.368;2023-03-31T02:00:13;98665.66;;;15.22;61.54
15678;BME280;7939;50.814;6.368;2023-03-31T02:02:44;98656.22;;;15.22;61.27
15678;BME280;7939;50.814;6.368;2023-03-31T02:05:17;98644.25;;;15.21;61.55
15678;BME280;7939;50.814;6.368;2023-03-31T02:07:47;98639.09;;;15.21;61.66
15678;BME280;7939;50.814;6.368;2023-03-31T02:10:16;98623.66;;;15.21;61.87
15678;BME280;7939;50.814;6.368;2023-03-31T02:12:45;98615.97;;;15.20;61.58
15678;BME280;7939;50.814;6.368;2023-03-31T02:15:14;98604.00;;;15.19;61.18
15678;BME280;7939;50.814;6.368;2023-03-31T02:17:47;98603.16;;;15.18;61.51
15678;BME280;7939;50.814;6.368;2023-03-31T02:20:16;98591.13;;;15.19;61.40
15678;BME280;7939;50.814;6.368;2023-03-31T02:22:47;98594.53;;;15.19;61.57
15678;BME280;7939;50.814;6.368;2023-03-31T02:25:19;98588.56;;;15.19;61.43
15678;BME280;7939;50.814;6.368;2023-03-31T02:27:51;98558.59;;;15.18;61.90
15678;BME280;7939;50.814;6.368;2023-03-31T02:30:19;98547.38;;;15.19;61.55
15678;BME280;7939;50.814;6.368;2023-03-31T02:32:46;98531.19;;;15.17;61.22
15678;BME280;7939;50.814;6.368;2023-03-31T02:35:14;98531.19;;;15.17;61.41
15678;BME280;7939;50.814;6.368;2023-03-31T02:37:42;98523.47;;;15.17;61.90
15678;BME280;7939;50.814;6.368;2023-03-31T02:40:14;98505.53;;;15.15;61.42
15678;BME280;7939;50.814;6.368;2023-03-31T02:42:42;98498.63;;;15.16;61.48
15678;BME280;7939;50.814;6.368;2023-03-31T02:45:40;98496.06;;;15.16;61.29
15678;BME280;7939;50.814;6.368;2023-03-31T02:48:10;98487.50;;;15.15;61.22
15678;BME280;7939;50.814;6.368;2023-03-31T02:53:38;98467.03;;;15.12;61.53
15678;BME280;7939;50.814;6.368;2023-03-31T02:56:18;98458.47;;;15.11;61.61
15678;BME280;7939;50.814;6.368;2023-03-31T02:59:00;98457.63;;;15.11;61.55
15678;BME280;7939;50.814;6.368;2023-03-31T03:01:40;98449.06;;;15.10;61.30
15678;BME280;7939;50.814;6.368;2023-03-31T03:04:20;98424.25;;;15.09;61.52
15678;BME280;7939;50.814;6.368;2023-03-31T03:06:58;98450.81;;;15.10;61.50
15678;BME280;7939;50.814;6.368;2023-03-31T03:09:34;98442.25;;;15.09;61.36
15678;BME280;7939;50.814;6.368;2023-03-31T03:12:08;98435.47;;;15.07;61.84
15678;BME280;7939;50.814;6.368;2023-03-31T03:14:41;98437.16;;;15.08;61.41
15678;BME280;7939;50.814;6.368;2023-03-31T03:17:17;98432.91;;;15.07;61.47
15678;BME280;7939;50.814;6.368;2023-03-31T03:19:51;98432.91;;;15.07;61.56
15678;BME280;7939;50.814;6.368;2023-03-31T03:22:19;98430.34;;;15.07;61.83
15678;BME280;7939;50.814;6.368;2023-03-31T03:24:46;98409.81;;;15.05;61.16
15678;BME280;7939;50.814;6.368;2023-03-31T03:27:13;98403.00;;;15.04;61.75
15678;BME280;7939;50.814;6.368;2023-03-31T03:29:40;98403.91;;;15.03;61.40
15678;BME280;7939;50.814;6.368;2023-03-31T03:32:07;98407.31;;;15.04;61.38
15678;BME280;7939;50.814;6.368;2023-03-31T03:34:35;98406.50;;;15.03;61.50
15678;BME280;7939;50.814;6.368;2023-03-31T03:37:02;98400.50;;;15.03;61.12
15678;BME280;7939;50.814;6.368;2023-03-31T03:39:28;98395.41;;;15.01;61.07
15678;BME280;7939;50.814;6.368;2023-03-31T03:41:55;98389.41;;;15.01;61.48
15678;BME280;7939;50.814;6.368;2023-03-31T03:44:22;98371.47;;;14.99;61.45
15678;BME280;7939;50.814;6.368;2023-03-31T03:46:48;98362.94;;;14.99;60.91
15678;BME280;7939;50.814;6.368;2023-03-31T03:49:15;98361.25;;;14.98;61.49
15678;BME280;7939;50.814;6.368;2023-03-31T03:51:43;98361.25;;;14.98;60.90
15678;BME280;7939;50.814;6.368;2023-03-31T03:54:09;98344.16;;;14.97;60.93
15678;BME280;7939;50.814;6.368;2023-03-31T03:56:36;98330.47;;;14.96;61.38
15678;BME280;7939;50.814;6.368;2023-03-31T03:59:03;98316.81;;;14.94;61.16
15678;BME280;7939;50.814;6.368;2023-03-31T04:01:29;98314.22;;;14.94;60.86
15678;BME280;7939;50.814;6.368;2023-03-31T04:03:56;98302.28;;;14.93;60.95
15678;BME280;7939;50.814;6.368;2023-03-31T04:06:22;98299.72;;;14.93;61.10
15678;BME280;7939;50.814;6.368;2023-03-31T04:08:50;98303.94;;;14.94;61.02
15678;BME280;7939;50.814;6.368;2023-03-31T04:11:18;98284.34;;;14.92;61.16
15678;BME280;7939;50.814;6.368;2023-03-31T04:13:45;98284.41;;;14.90;61.01
15678;BME280;7939;50.814;6.368;2023-03-31T04:16:13;98269.81;;;14.91;60.98
15678;BME280;7939;50.814;6.368;2023-03-31T04:18:43;98268.97;;;14.90;61.05
15678;BME280;7939;50.814;6.368;2023-03-31T04:21:11;98261.25;;;14.90;61.24
15678;BME280;7939;50.814;6.368;2023-03-31T04:23:40;98257.00;;;14.89;60.74
15678;BME280;7939;50.814;6.368;2023-03-31T04:26:12;98247.63;;;14.88;60.93
15678;BME280;7939;50.814;6.368;2023-03-31T04:28:40;98231.34;;;14.88;61.18
15678;BME280;7939;50.814;6.368;2023-03-31T04:31:12;98227.13;;;14.87;60.92
15678;BME280;7939;50.814;6.368;2023-03-31T04:33:40;98219.41;;;14.87;61.22
15678;BME280;7939;50.814;6.368;2023-03-31T04:36:10;98210.00;;;14.86;61.04
15678;BME280;7939;50.814;6.368;2023-03-31T04:38:42;98200.63;;;14.84;61.14
15678;BME280;7939;50.814;6.368;2023-03-31T04:41:12;98191.25;;;14.83;61.19
15678;BME280;7939;50.814;6.368;2023-03-31T04:43:39;98205.78;;;14.84;60.68
15678;BME280;7939;50.814;6.368;2023-03-31T04:46:06;98186.97;;;14.82;61.13
15678;BME280;7939;50.814;6.368;2023-03-31T04:48:32;98185.25;;;14.83;60.93
15678;BME280;7939;50.814;6.368;2023-03-31T04:50:59;98165.56;;;14.82;60.87
15678;BME280;7939;50.814;6.368;2023-03-31T04:53:26;98163.16;;;14.79;60.63
15678;BME280;7939;50.814;6.368;2023-03-31T04:55:52;98152.94;;;14.77;60.37
15678;BME280;7939;50.814;6.368;2023-03-31T04:58:21;98153.78;;;14.78;60.48
15678;BME280;7939;50.814;6.368;2023-03-31T05:00:47;98141.88;;;14.75;60.50
15678;BME280;7939;50.814;6.368;2023-03-31T05:03:14;98146.94;;;14.77;60.16
15678;BME280;7939;50.814;6.368;2023-03-31T05:05:40;98136.16;;;14.69;60.20
15678;BME280;7939;50.814;6.368;2023-03-31T05:08:07;98141.09;;;14.73;60.61
15678;BME280;7939;50.814;6.368;2023-03-31T05:10:33;98136.88;;;14.72;60.35
15678;BME280;7939;50.814;6.368;2023-03-31T05:13:00;98129.22;;;14.71;59.78
15678;BME280;7939;50.814;6.368;2023-03-31T05:15:28;98122.47;;;14.68;59.73
15678;BME280;7939;50.814;6.368;2023-03-31T05:17:56;98111.28;;;14.69;60.03
15678;BME280;7939;50.814;6.368;2023-03-31T05:20:23;98110.44;;;14.69;60.11
15678;BME280;7939;50.814;6.368;2023-03-31T05:22:50;98109.59;;;14.68;59.43
15678;BME280;7939;50.814;6.368;2023-03-31T05:25:16;98107.88;;;14.69;59.98
15678;BME280;7939;50.814;6.368;2023-03-31T05:27:45;98109.53;;;14.70;59.95
15678;BME280;7939;50.814;6.368;2023-03-31T05:30:12;98111.28;;;14.69;60.00
15678;BME280;7939;50.814;6.368;2023-03-31T05:32:41;98119.91;;;14.68;60.57
15678;BME280;7939;50.814;6.368;2023-03-31T05:35:08;98109.53;;;14.70;60.39
15678;BME280;7939;50.814;6.368;2023-03-31T05:37:35;98112.09;;;14.70;60.19
15678;BME280;7939;50.814;6.368;2023-03-31T05:40:02;98111.28;;;14.69;60.55
15678;BME280;7939;50.814;6.368;2023-03-31T05:42:30;98113.00;;;14.69;60.57
15678;BME280;7939;50.814;6.368;2023-03-31T05:44:56;98102.81;;;14.67;60.26
15678;BME280;7939;50.814;6.368;2023-03-31T05:47:23;98088.22;;;14.68;60.74
15678;BME280;7939;50.814;6.368;2023-03-31T05:49:51;98083.06;;;14.68;60.41
15678;BME280;7939;50.814;6.368;2023-03-31T05:52:18;98077.84;;;14.69;60.71
15678;BME280;7939;50.814;6.368;2023-03-31T05:54:44;98075.28;;;14.69;60.28
15678;BME280;7939;50.814;6.368;2023-03-31T05:57:11;98061.66;;;14.67;60.57
15678;BME280;7939;50.814;6.368;2023-03-31T05:59:37;98062.56;;;14.66;60.65
15678;BME280;7939;50.814;6.368;2023-03-31T06:02:07;98056.53;;;14.67;60.63
15678;BME280;7939;50.814;6.368;2023-03-31T06:04:34;98047.16;;;14.66;60.87
15678;BME280;7939;50.814;6.368;2023-03-31T06:07:02;98059.16;;;14.66;60.95
15678;BME280;7939;50.814;6.368;2023-03-31T06:09:29;98064.31;;;14.66;61.23
15678;BME280;7939;50.814;6.368;2023-03-31T06:11:56;98060.13;;;14.63;60.92
15678;BME280;7939;50.814;6.368;2023-03-31T06:14:22;98065.22;;;14.65;61.14
15678;BME280;7939;50.814;6.368;2023-03-31T06:16:49;98052.38;;;14.65;61.07
15678;BME280;7939;50.814;6.368;2023-03-31T06:19:16;98067.78;;;14.65;61.20
15678;BME280;7939;50.814;6.368;2023-03-31T06:21:43;98065.34;;;14.62;61.23
15678;BME280;7939;50.814;6.368;2023-03-31T06:24:11;98061.09;;;14.61;61.12
15678;BME280;7939;50.814;6.368;2023-03-31T06:26:37;98057.69;;;14.60;61.30
15678;BME280;7939;50.814;6.368;2023-03-31T06:29:04;98050.00;;;14.60;60.51
15678;BME280;7939;50.814;6.368;2023-03-31T06:31:31;98047.50;;;14.59;60.89
15678;BME280;7939;50.814;6.368;2023-03-31T06:33:58;98048.38;;;14.57;61.06
15678;BME280;7939;50.814;6.368;2023-03-31T06:36:25;98042.41;;;14.57;60.86
15678;BME280;7939;50.814;6.368;2023-03-31T06:38:52;98047.50;;;14.59;60.65
15678;BME280;7939;50.814;6.368;2023-03-31T06:41:20;98037.22;;;14.59;60.83
15678;BME280;7939;50.814;6.368;2023-03-31T06:43:47;98032.06;;;14.59;60.75
15678;BME280;7939;50.814;6.368;2023-03-31T06:46:14;98029.53;;;14.57;60.91
15678;BME280;7939;50.814;6.368;2023-03-31T06:48:41;98019.25;;;14.57;60.82
15678;BME280;7939;50.814;6.368;2023-03-31T06:51:08;98032.06;;;14.59;60.65
15678;BME280;7939;50.814;6.368;2023-03-31T06:53:35;98026.13;;;14.56;61.06
15678;BME280;7939;50.814;6.368;2023-03-31T06:56:02;98023.56;;;14.56;60.62
15678;BME280;7939;50.814;6.368;2023-03-31T06:58:31;98031.28;;;14.56;61.00
15678;BME280;7939;50.814;6.368;2023-03-31T07:01:01;98030.53;;;14.54;61.13
15678;BME280;7939;50.814;6.368;2023-03-31T07:03:28;98026.22;;;14.55;60.77
15678;BME280;7939;50.814;6.368;2023-03-31T07:05:55;98016.75;;;14.55;61.05
15678;BME280;7939;50.814;6.368;2023-03-31T07:08:22;98021.06;;;14.55;60.89
15678;BME280;7939;50.814;6.368;2023-03-31T07:10:53;98019.50;;;14.52;61.62
15678;BME280;7939;50.814;6.368;2023-03-31T07:13:22;98026.22;;;14.55;60.95
15678;BME280;7939;50.814;6.368;2023-03-31T07:15:50;98026.22;;;14.55;60.70
15678;BME280;7939;50.814;6.368;2023-03-31T07:18:17;98009.06;;;14.55;61.19
15678;BME280;7939;50.814;6.368;2023-03-31T07:20:46;98015.19;;;14.53;60.99
15678;BME280;7939;50.814;6.368;2023-03-31T07:23:13;98003.84;;;14.57;61.15
15678;BME280;7939;50.814;6.368;2023-03-31T07:25:40;97992.72;;;14.56;60.88
15678;BME280;7939;50.814;6.368;2023-03-31T07:28:07;98001.25;;;14.57;61.51
15678;BME280;7939;50.814;6.368;2023-03-31T07:30:33;98001.22;;;14.59;61.23
15678;BME280;7939;50.814;6.368;2023-03-31T07:33:01;98005.47;;;14.60;61.59
15678;BME280;7939;50.814;6.368;2023-03-31T07:35:28;98012.25;;;14.61;61.11
15678;BME280;7939;50.814;6.368;2023-03-31T07:37:55;98007.94;;;14.61;60.85
15678;BME280;7939;50.814;6.368;2023-03-31T07:40:24;98005.38;;;14.61;61.63
15678;BME280;7939;50.814;6.368;2023-03-31T07:42:51;98003.56;;;14.63;61.54
15678;BME280;7939;50.814;6.368;2023-03-31T07:45:18;97999.31;;;14.62;61.58
15678;BME280;7939;50.814;6.368;2023-03-31T07:47:45;98015.50;;;14.64;60.87
15678;BME280;7939;50.814;6.368;2023-03-31T07:50:14;98008.72;;;14.63;61.72
15678;BME280;7939;50.814;6.368;2023-03-31T07:52:41;98010.38;;;14.64;61.29
15678;BME280;7939;50.814;6.368;2023-03-31T07:55:08;98006.09;;;14.65;60.76
15678;BME280;7939;50.814;6.368;2023-03-31T07:57:35;98018.88;;;14.66;61.42
15678;BME280;7939;50.814;6.368;2023-03-31T08:00:02;97994.91;;;14.66;60.69
15678;BME280;7939;50.814;6.368;2023-03-31T08:02:32;98009.41;;;14.67;60.96
15678;BME280;7939;50.814;6.368;2023-03-31T08:04:59;97998.22;;;14.68;61.01
15678;BME280;7939;50.814;6.368;2023-03-31T08:07:27;98018.72;;;14.69;61.27
15678;BME280;7939;50.814;6.368;2023-03-31T08:09:55;98003.38;;;14.68;61.35
15678;BME280;7939;50.814;6.368;2023-03-31T08:12:22;97994.66;;;14.70;61.32
15678;BME280;7939;50.814;6.368;2023-03-31T08:14:49;97998.84;;;14.73;61.16
15678;BME280;7939;50.814;6.368;2023-03-31T08:17:16;97998.78;;;14.74;60.81
15678;BME280;7939;50.814;6.368;2023-03-31T08:19:42;97995.38;;;14.74;61.18
15678;BME280;7939;50.814;6.368;2023-03-31T08:22:09;97995.22;;;14.77;61.00
15678;BME280;7939;50.814;6.368;2023-03-31T08:24:37;97983.44;;;14.73;60.95
15678;BME280;7939;50.814;6.368;2023-03-31T08:27:03;97988.38;;;14.77;60.97
15678;BME280;7939;50.814;6.368;2023-03-31T08:29:30;97986.63;;;14.78;60.99
15678;BME280;7939;50.814;6.368;2023-03-31T08:31:56;97981.47;;;14.78;60.78
15678;BME280;7939;50.814;6.368;2023-03-31T08:34:23;97977.84;;;14.82;60.95
15678;BME280;7939;50.814;6.368;2023-03-31T08:36:51;97979.66;;;14.80;61.17
15678;BME280;7939;50.814;6.368;2023-03-31T08:39:17;97979.47;;;14.84;60.81
15678;BME280;7939;50.814;6.368;2023-03-31T08:41:53;97970.84;;;14.86;60.93
15678;BME280;7939;50.814;6.368;2023-03-31T08:44:28;97986.13;;;14.89;60.61
15678;BME280;7939;50.814;6.368;2023-03-31T08:46:58;97963.78;;;14.89;60.99
15678;BME280;7939;50.814;6.368;2023-03-31T08:49:28;97967.97;;;14.92;60.80
15678;BME280;7939;50.814;6.368;2023-03-31T08:51:59;97967.81;;;14.95;60.75
15678;BME280;7939;50.814;6.368;2023-03-31T08:54:30;97976.44;;;14.94;60.51
15678;BME280;7939;50.814;6.368;2023-03-31T08:57:00;97963.47;;;14.97;60.25
15678;BME280;7939;50.814;6.368;2023-03-31T08:59:29;97974.50;;;14.99;60.20
15678;BME280;7939;50.814;6.368;2023-03-31T09:02:04;97969.19;;;15.02;60.39
15678;BME280;7939;50.814;6.368;2023-03-31T09:07:39;97975.78;;;15.07;59.76
15678;BME280;7939;50.814;6.368;2023-03-31T09:10:33;97963.56;;;15.13;59.92
15678;BME280;7939;50.814;6.368;2023-03-31T09:13:09;97973.94;;;15.11;59.65
15678;BME280;7939;50.814;6.368;2023-03-31T09:15:41;97964.31;;;15.15;59.33
15678;BME280;7939;50.814;6.368;2023-03-31T09:18:17;97950.31;;;15.20;59.38
15678;BME280;7939;50.814;6.368;2023-03-31T09:20:48;97946.78;;;15.23;59.62
15678;BME280;7939;50.814;6.368;2023-03-31T09:23:23;97959.56;;;15.24;59.64
15678;BME280;7939;50.814;6.368;2023-03-31T09:25:51;97938.00;;;15.27;59.33
15678;BME280;7939;50.814;6.368;2023-03-31T09:28:21;97939.69;;;15.28;59.46
15678;BME280;7939;50.814;6.368;2023-03-31T09:30:49;97945.66;;;15.28;58.65
15678;BME280;7939;50.814;6.368;2023-03-31T09:33:18;97935.13;;;15.33;59.26
15678;BME280;7939;50.814;6.368;2023-03-31T09:35:45;97939.44;;;15.32;58.77
15678;BME280;7939;50.814;6.368;2023-03-31T09:38:13;97943.63;;;15.35;58.60
15678;BME280;7939;50.814;6.368;2023-03-31T09:40:41;97939.38;;;15.34;58.42
15678;BME280;7939;50.814;6.368;2023-03-31T09:43:16;97941.72;;;15.38;58.81
15678;BME280;7939;50.814;6.368;2023-03-31T09:45:45;97946.84;;;15.38;58.53
15678;BME280;7939;50.814;6.368;2023-03-31T09:48:15;97940.03;;;15.37;58.32
15678;BME280;7939;50.814;6.368;2023-03-31T09:50:45;97946.63;;;15.43;58.45
15678;BME280;7939;50.814;6.368;2023-03-31T09:53:17;97927.63;;;15.46;58.60
15678;BME280;7939;50.814;6.368;2023-03-31T09:55:51;97922.34;;;15.49;58.47
15678;BME280;7939;50.814;6.368;2023-03-31T09:58:20;97932.41;;;15.53;58.43
15678;BME280;7939;50.814;6.368;2023-03-31T10:00:58;97917.63;;;15.57;58.41
15678;BME280;7939;50.814;6.368;2023-03-31T10:03:26;97906.41;;;15.58;58.42
15678;BME280;7939;50.814;6.368;2023-03-31T10:05:55;97897.81;;;15.59;58.38
15678;BME280;7939;50.814;6.368;2023-03-31T10:08:28;97923.41;;;15.62;58.34
15678;BME280;7939;50.814;6.368;2023-03-31T10:11:06;97931.97;;;15.62;57.52
15678;BME280;7939;50.814;6.368;2023-03-31T10:13:40;97919.97;;;15.61;57.51
15678;BME280;7939;50.814;6.368;2023-03-31T10:16:11;97922.56;;;15.61;57.65
15678;BME280;7939;50.814;6.368;2023-03-31T10:18:39;97917.28;;;15.64;57.66
15678;BME280;7939;50.814;6.368;2023-03-31T10:21:17;97922.41;;;15.64;56.90
15678;BME280;7939;50.814;6.368;2023-03-31T10:23:46;97923.13;;;15.68;57.42
15678;BME280;7939;50.814;6.368;2023-03-31T10:26:16;97920.63;;;15.67;57.60
15678;BME280;7939;50.814;6.368;2023-03-31T10:28:43;97925.78;;;15.67;57.39
15678;BME280;7939;50.814;6.368;2023-03-31T10:31:12;97912.81;;;15.68;57.58
15678;BME280;7939;50.814;6.368;2023-03-31T10:33:41;97912.91;;;15.67;57.44
15678;BME280;7939;50.814;6.368;2023-03-31T10:36:17;97935.06;;;15.69;57.19
15678;BME280;7939;50.814;6.368;2023-03-31T10:38:45;97935.06;;;15.69;57.40
15678;BME280;7939;50.814;6.368;2023-03-31T10:41:17;97921.28;;;15.70;57.39
15678;BME280;7939;50.814;6.368;2023-03-31T10:43:48;97925.59;;;15.70;57.34
15678;BME280;7939;50.814;6.368;2023-03-31T10:46:17;97912.91;;;15.67;57.73
15678;BME280;7939;50.814;6.368;2023-03-31T10:48:44;97900.94;;;15.66;57.65
15678;BME280;7939;50.814;6.368;2023-03-31T10:51:15;97903.44;;;15.67;57.67
15678;BME280;7939;50.814;6.368;2023-03-31T10:53:43;97893.22;;;15.66;57.61
15678;BME280;7939;50.814;6.368;2023-03-31T10:56:31;97895.47;;;15.72;57.41
15678;BME280;7939;50.814;6.368;2023-03-31T10:59:13;97897.13;;;15.73;57.61
15678;BME280;7939;50.814;6.368;2023-03-31T11:01:57;97893.66;;;15.74;57.51
15678;BME280;7939;50.814;6.368;2023-03-31T11:04:41;97890.91;;;15.77;57.71
15678;BME280;7939;50.814;6.368;2023-03-31T11:07:19;97888.19;;;15.80;57.59
15678;BME280;7939;50.814;6.368;2023-03-31T11:10:11;97877.06;;;15.79;57.68
15678;BME280;7939;50.814;6.368;2023-03-31T11:12:51;97867.41;;;15.83;57.69
15678;BME280;7939;50.814;6.368;2023-03-31T11:15:22;97874.81;;;15.89;57.59
15678;BME280;7939;50.814;6.368;2023-03-31T11:18:05;97869.06;;;15.84;57.41
15678;BME280;7939;50.814;6.368;2023-03-31T11:20:40;97877.47;;;15.87;57.13
15678;BME280;7939;50.814;6.368;2023-03-31T11:23:17;97876.66;;;15.87;57.39
15678;BME280;7939;50.814;6.368;2023-03-31T11:25:51;97867.03;;;15.90;57.54
15678;BME280;7939;50.814;6.368;2023-03-31T11:28:40;97864.28;;;15.94;57.73
15678;BME280;7939;50.814;6.368;2023-03-31T11:31:22;97866.94;;;15.92;57.46
15678;BME280;7939;50.814;6.368;2023-03-31T11:34:07;97872.91;;;15.93;57.29
15678;BME280;7939;50.814;6.368;2023-03-31T11:36:49;97873.56;;;15.96;57.59
15678;BME280;7939;50.814;6.368;2023-03-31T11:39:31;97876.31;;;15.93;57.37
15678;BME280;7939;50.814;6.368;2023-03-31T11:42:02;97861.47;;;15.98;57.39
15678;BME280;7939;50.814;6.368;2023-03-31T11:44:38;97875.19;;;15.99;57.24
15678;BME280;7939;50.814;6.368;2023-03-31T11:47:08;97862.22;;;16.00;56.90
15678;BME280;7939;50.814;6.368;2023-03-31T11:49:40;97856.41;;;15.97;57.43
15678;BME280;7939;50.814;6.368;2023-03-31T11:52:13;97860.56;;;15.99;56.96
15678;BME280;7939;50.814;6.368;2023-03-31T11:54:44;97849.25;;;16.02;56.67
15678;BME280;7939;50.814;6.368;2023-03-31T11:57:16;97850.56;;;16.09;56.68
15678;BME280;7939;50.814;6.368;2023-03-31T11:59:47;97848.75;;;16.11;55.89
15678;BME280;7939;50.814;6.368;2023-03-31T12:02:20;97848.84;;;16.09;56.14
15678;BME280;7939;50.814;6.368;2023-03-31T12:04:51;97846.94;;;16.13;55.77
15678;BME280;7939;50.814;6.368;2023-03-31T12:07:23;97834.78;;;16.15;55.87
15678;BME280;7939;50.814;6.368;2023-03-31T12:09:59;97856.16;;;16.17;55.93
15678;BME280;7939;50.814;6.368;2023-03-31T12:12:34;97838.28;;;16.14;55.74
15678;BME280;7939;50.814;6.368;2023-03-31T12:15:10;97848.25;;;16.20;55.82
15678;BME280;7939;50.814;6.368;2023-03-31T12:17:39;97847.28;;;16.23;55.85
15678;BME280;7939;50.814;6.368;2023-03-31T12:20:17;97831.97;;;16.19;56.05
15678;BME280;7939;50.814;6.368;2023-03-31T12:22:47;97849.91;;;16.21;56.11
15678;BME280;7939;50.814;6.368;2023-03-31T12:25:18;97847.44;;;16.19;56.28
15678;BME280;7939;50.814;6.368;2023-03-31T12:27:47;97849.25;;;16.17;56.17
15678;BME280;7939;50.814;6.368;2023-03-31T12:30:19;97860.41;;;16.18;57.37
15678;BME280;7939;50.814;6.368;2023-03-31T12:32:52;97857.91;;;16.16;58.41
15678;BME280;7939;50.814;6.368;2023-03-31T12:35:25;97863.06;;;16.16;59.03
15678;BME280;7939;50.814;6.368;2023-03-31T12:38:02;97860.72;;;16.12;59.18
15678;BME280;7939;50.814;6.368;2023-03-31T12:40:48;97847.94;;;16.10;59.47
15678;BME280;7939;50.814;6.368;2023-03-31T12:43:27;97848.75;;;16.11;59.51
15678;BME280;7939;50.814;6.368;2023-03-31T12:46:05;97841.94;;;16.10;59.74
15678;BME280;7939;50.814;6.368;2023-03-31T12:48:43;97834.22;;;16.10;59.63
15678;BME280;7939;50.814;6.368;2023-03-31T12:51:25;97821.41;;;16.08;60.11
15678;BME280;7939;50.814;6.368;2023-03-31T12:54:09;97815.25;;;16.11;59.44
15678;BME280;7939;50.814;6.368;2023-03-31T12:57:12;97803.94;;;16.13;59.25
15678;BME280;7939;50.814;6.368;2023-03-31T12:59:42;97794.47;;;16.14;59.19
15678;BME280;7939;50.814;6.368;2023-03-31T13:02:23;97787.56;;;16.14;58.75
15678;BME280;7939;50.814;6.368;2023-03-31T13:04:50;97797.53;;;16.21;58.78
15678;BME280;7939;50.814;6.368;2023-03-31T13:07:49;97824.81;;;16.25;58.69
15678;BME280;7939;50.814;6.368;2023-03-31T13:10:25;97824.16;;;16.21;58.48
15678;BME280;7939;50.814;6.368;2023-03-31T13:12:59;97834.31;;;16.24;58.29
15678;BME280;7939;50.814;6.368;2023-03-31T13:15:27;97801.88;;;16.20;57.24
15678;BME280;7939;50.814;6.368;2023-03-31T13:17:57;97805.13;;;16.24;56.69
15678;BME280;7939;50.814;6.368;2023-03-31T13:20:31;97809.25;;;16.26;56.95
15678;BME280;7939;50.814;6.368;2023-03-31T13:23:04;97796.63;;;16.22;56.87
15678;BME280;7939;50.814;6.368;2023-03-31T13:25:46;97795.47;;;16.27;56.79
15678;BME280;7939;50.814;6.368;2023-03-31T13:28:25;97788.75;;;16.25;56.92
15678;BME280;7939;50.814;6.368;2023-03-31T13:30:55;97793.31;;;16.19;56.23
15678;BME280;7939;50.814;6.368;2023-03-31T13:33:25;97791.41;;;16.23;56.36
15678;BME280;7939;50.814;6.368;2023-03-31T13:36:00;97792.66;;;16.16;55.99
15678;BME280;7939;50.814;6.368;2023-03-31T13:38:44;97766.56;;;16.22;56.37
15678;BME280;7939;50.814;6.368;2023-03-31T13:41:23;97767.28;;;16.24;56.44
15678;BME280;7939;50.814;6.368;2023-03-31T13:44:12;97777.25;;;16.30;56.37
15678;BME280;7939;50.814;6.368;2023-03-31T13:50:02;97778.19;;;16.29;56.46
15678;BME280;7939;50.814;6.368;2023-03-31T13:52:41;97775.31;;;16.34;55.69